Wallace, Louisiana
Current Conditions -  °F | °C
As of 12:15 PM on Friday 28 Nov 2014 (Local Time) from K1L0 Reporting Station
Clear Clear  
Wind Chill: 59°   Ceiling: Unl
Heat Index: 59°   Visibility: 10mi
Dew Point: 39°   Wind: 6mph
Humidity: 48%   Direction: 90°E
Pressure: 30.37"   Gusts: NA
Location:  30.0045°N, 90.6027°W
Report Text: K1L0 281815Z AUTO 09005KT 10SM CLR 15/04 A3037 RMK AO2 T01500039
Loading
Personal Weather Stations






























Interactive Weather Map New forecast layout! Learn more

10-Day Weather Forecast

Advertisements
Track Severe Weather on mobile